createdAt,value
2016-11-14T00:00:01.528Z,931.78
2016-11-14T00:01:11.944Z,931.74
2016-11-14T00:02:22.357Z,931.75
2016-11-14T00:03:32.765Z,931.76
2016-11-14T00:04:43.863Z,931.73
2016-11-14T00:05:54.272Z,931.74
2016-11-14T00:07:19.237Z,931.72
2016-11-14T00:08:29.646Z,931.7
2016-11-14T00:09:54.606Z,931.69
2016-11-14T00:12:44.526Z,931.65
2016-11-14T00:13:55.132Z,931.67
2016-11-14T00:16:30.504Z,931.67
2016-11-14T00:17:40.914Z,931.67
2016-11-14T00:19:06.076Z,931.68
2016-11-14T00:20:31.034Z,931.68
2016-11-14T00:21:41.442Z,931.66
2016-11-14T00:22:51.849Z,931.7
2016-11-14T00:24:02.258Z,931.66
2016-11-14T00:25:12.773Z,931.69
2016-11-14T00:26:23.183Z,931.68
2016-11-14T00:27:33.592Z,931.71
2016-11-14T00:28:44.003Z,931.67
2016-11-14T00:29:54.611Z,931.68
2016-11-14T00:31:05.021Z,931.67
2016-11-14T00:32:15.432Z,931.65
2016-11-14T00:33:25.871Z,931.67
2016-11-14T00:34:36.287Z,931.63
2016-11-14T00:35:46.895Z,931.67
2016-11-14T00:36:57.810Z,931.61
2016-11-14T00:38:08.227Z,931.61
2016-11-14T00:39:18.681Z,931.62
2016-11-14T00:40:29.092Z,931.6
2016-11-14T00:41:39.643Z,931.59
2016-11-14T00:44:15.015Z,931.63
2016-11-14T00:45:25.420Z,931.63
2016-11-14T00:46:35.830Z,931.63
2016-11-14T00:47:46.275Z,931.59
2016-11-14T00:48:56.689Z,931.57
2016-11-14T00:50:07.098Z,931.63
2016-11-14T00:51:17.540Z,931.6
2016-11-14T00:52:27.962Z,931.6
2016-11-14T00:53:38.376Z,931.61
2016-11-14T00:54:48.786Z,931.66
2016-11-14T00:55:59.196Z,931.66
2016-11-14T00:57:10.105Z,931.71
2016-11-14T00:58:20.517Z,931.73
2016-11-14T00:59:45.478Z,931.77
2016-11-14T01:00:56.755Z,931.8
2016-11-14T01:02:07.174Z,931.8
2016-11-14T01:03:17.591Z,931.84
2016-11-14T01:04:28.201Z,931.85
2016-11-14T01:05:38.611Z,931.86
2016-11-14T01:06:49.021Z,931.85
2016-11-14T01:07:59.439Z,931.86
2016-11-14T01:09:10.048Z,931.86
2016-11-14T01:10:20.457Z,931.89
2016-11-14T01:11:30.868Z,931.9
2016-11-14T01:12:55.830Z,931.89
2016-11-14T01:14:20.826Z,931.94
2016-11-14T01:15:31.242Z,931.97
2016-11-14T01:16:41.650Z,932.03
2016-11-14T01:17:52.066Z,932.04
2016-11-14T01:19:02.485Z,932.03
2016-11-14T01:20:12.896Z,932.06
2016-11-14T01:21:23.311Z,932.01
2016-11-14T01:22:33.730Z,931.97
2016-11-14T01:23:44.147Z,932
2016-11-14T01:24:54.554Z,932.01
2016-11-14T01:26:05.170Z,932.03
2016-11-14T01:27:15.583Z,932.07
2016-11-14T01:28:26.017Z,932.09
2016-11-14T01:29:36.468Z,932.09
2016-11-14T01:30:46.880Z,932.1
2016-11-14T01:31:57.491Z,932.09
2016-11-14T01:33:07.903Z,932.08
2016-11-14T01:34:18.347Z,932.09
2016-11-14T01:35:28.759Z,932.04
2016-11-14T01:36:39.178Z,932.05
2016-11-14T01:37:49.793Z,932.08
2016-11-14T01:39:00.206Z,932.09
2016-11-14T01:41:35.589Z,932.15
2016-11-14T01:42:46.003Z,932.15
2016-11-14T01:43:56.412Z,932.14
2016-11-14T01:45:06.823Z,932.13
2016-11-14T01:46:17.258Z,932.18
2016-11-14T01:47:27.670Z,932.15
2016-11-14T01:48:38.285Z,932.13
2016-11-14T01:49:48.693Z,932.16
2016-11-14T01:50:59.109Z,932.16
2016-11-14T01:52:09.522Z,932.18
2016-11-14T01:53:19.938Z,932.17
2016-11-14T01:54:30.577Z,932.14
2016-11-14T01:55:40.990Z,932.18
2016-11-14T01:56:51.407Z,932.17
2016-11-14T01:58:01.822Z,932.19
2016-11-14T01:59:12.265Z,932.2
2016-11-14T02:00:22.877Z,932.16
2016-11-14T02:01:33.286Z,932.16
2016-11-14T02:02:43.698Z,932.15
2016-11-14T02:03:54.111Z,932.1
2016-11-14T02:05:04.525Z,932.14
2016-11-14T02:06:15.138Z,932.13
2016-11-14T02:07:25.551Z,932.12
2016-11-14T02:08:36.449Z,932.08
2016-11-14T02:09:46.870Z,932.07
2016-11-14T02:10:57.311Z,932.06
2016-11-14T02:12:07.924Z,932.06
2016-11-14T02:13:18.366Z,932.04
2016-11-14T02:14:28.782Z,932.05
2016-11-14T02:15:39.191Z,932.05
2016-11-14T02:16:49.603Z,932.01
2016-11-14T02:18:14.560Z,931.95
2016-11-14T02:19:24.966Z,931.94
2016-11-14T02:20:49.924Z,931.9
2016-11-14T02:22:00.333Z,931.89
2016-11-14T02:23:10.744Z,931.87
2016-11-14T02:24:21.262Z,931.92
2016-11-14T02:25:31.677Z,931.9
2016-11-14T02:26:42.120Z,931.87
2016-11-14T02:27:52.536Z,931.83
2016-11-14T02:29:17.698Z,931.85
2016-11-14T02:30:28.104Z,931.82
2016-11-14T02:31:38.550Z,931.77
2016-11-14T02:32:48.964Z,931.79
2016-11-14T02:33:59.372Z,931.72
2016-11-14T02:35:09.797Z,931.73
2016-11-14T02:36:20.326Z,931.75
2016-11-14T02:37:30.857Z,931.71
2016-11-14T02:38:41.384Z,931.67
2016-11-14T02:39:51.947Z,931.66
2016-11-14T02:41:02.580Z,931.67
2016-11-14T02:42:13.109Z,931.67
2016-11-14T02:43:23.639Z,931.66
2016-11-14T02:44:34.171Z,931.67
2016-11-14T02:45:44.699Z,931.64
2016-11-14T02:46:55.231Z,931.62
2016-11-14T02:48:34.816Z,931.57
2016-11-14T02:49:45.345Z,931.54
2016-11-14T02:50:55.871Z,931.52
2016-11-14T02:52:06.601Z,931.45
2016-11-14T02:53:17.135Z,931.46
2016-11-14T02:54:27.699Z,931.49
2016-11-14T02:55:38.210Z,931.45
2016-11-14T02:56:48.681Z,931.43
2016-11-14T02:57:59.119Z,931.43
2016-11-14T02:59:09.565Z,931.37
2016-11-14T03:00:19.999Z,931.38
2016-11-14T03:01:30.436Z,931.38
2016-11-14T03:02:40.877Z,931.37
2016-11-14T03:03:51.415Z,931.32
2016-11-14T03:05:01.851Z,931.33
2016-11-14T03:06:12.318Z,931.32
2016-11-14T03:07:22.762Z,931.27
2016-11-14T03:08:33.187Z,931.26
2016-11-14T03:09:43.604Z,931.22
2016-11-14T03:10:53.935Z,931.23
2016-11-14T03:12:33.391Z,931.16
2016-11-14T03:13:44.191Z,931.11
2016-11-14T03:14:54.610Z,931.07
2016-11-14T03:16:04.934Z,931.07
2016-11-14T03:17:15.253Z,931.02
2016-11-14T03:18:25.573Z,930.99
2016-11-14T03:19:35.890Z,930.94
2016-11-14T03:20:46.206Z,930.93
2016-11-14T03:21:56.523Z,930.91
2016-11-14T03:23:06.841Z,930.86
2016-11-14T03:24:17.167Z,930.85
2016-11-14T03:25:27.492Z,930.81
2016-11-14T03:26:37.842Z,930.79
2016-11-14T03:27:48.158Z,930.78
2016-11-14T03:28:58.476Z,930.76
2016-11-14T03:30:08.807Z,930.75
2016-11-14T03:31:19.124Z,930.75
2016-11-14T03:32:29.546Z,930.72
2016-11-14T03:33:39.864Z,930.69
2016-11-14T03:34:50.186Z,930.71
2016-11-14T03:36:00.508Z,930.64
2016-11-14T03:37:10.824Z,930.63
2016-11-14T03:38:21.346Z,930.62
2016-11-14T03:39:31.701Z,930.6
2016-11-14T03:40:42.020Z,930.59
2016-11-14T03:41:52.348Z,930.57
2016-11-14T03:43:02.815Z,930.55
2016-11-14T03:44:13.350Z,930.52
2016-11-14T03:45:23.788Z,930.47
2016-11-14T03:46:34.224Z,930.45
2016-11-14T03:47:44.666Z,930.42
2016-11-14T03:48:55.605Z,930.4
2016-11-14T03:50:20.788Z,930.36
2016-11-14T03:51:31.221Z,930.35
2016-11-14T03:52:41.686Z,930.37
2016-11-14T03:53:52.158Z,930.32
2016-11-14T03:55:02.596Z,930.3
2016-11-14T03:56:13.034Z,930.29
2016-11-14T03:57:23.471Z,930.25
2016-11-14T03:58:33.908Z,930.22
2016-11-14T03:59:44.343Z,930.2
2016-11-14T04:01:09.321Z,930.21
2016-11-14T04:02:19.764Z,930.2
2016-11-14T04:03:30.205Z,930.16
2016-11-14T04:04:40.643Z,930.17
2016-11-14T04:05:51.183Z,930.11
2016-11-14T04:07:01.620Z,930.1
2016-11-14T04:08:12.060Z,930.06
2016-11-14T04:09:22.524Z,930.04
2016-11-14T04:10:32.961Z,929.99
2016-11-14T04:11:43.496Z,929.99
2016-11-14T04:12:53.934Z,929.94
2016-11-14T04:14:04.370Z,929.91
2016-11-14T04:15:14.803Z,929.91
2016-11-14T04:16:25.281Z,929.88
2016-11-14T04:17:35.817Z,929.9
2016-11-14T04:18:46.254Z,929.84
2016-11-14T04:19:56.692Z,929.84
2016-11-14T04:21:07.131Z,929.83
2016-11-14T04:22:17.565Z,929.84
2016-11-14T04:23:28.002Z,929.81
2016-11-14T04:24:38.438Z,929.79
2016-11-14T04:25:48.875Z,929.76
2016-11-14T04:26:59.314Z,929.76
2016-11-14T04:28:09.752Z,929.75
2016-11-14T04:29:20.389Z,929.69
2016-11-14T04:30:30.828Z,929.69
2016-11-14T04:31:41.266Z,929.68
2016-11-14T04:32:51.739Z,929.66
2016-11-14T04:34:02.175Z,929.64
2016-11-14T04:35:12.709Z,929.64
2016-11-14T04:36:23.145Z,929.62
2016-11-14T04:37:33.586Z,929.58
2016-11-14T04:38:44.025Z,929.61
2016-11-14T04:39:54.460Z,929.56
2016-11-14T04:41:19.439Z,929.54
2016-11-14T04:42:29.923Z,929.53
2016-11-14T04:43:40.357Z,929.52
2016-11-14T04:44:50.790Z,929.47
2016-11-14T04:46:01.924Z,929.47
2016-11-14T04:47:12.363Z,929.48
2016-11-14T04:48:22.836Z,929.47
2016-11-14T04:49:33.260Z,929.49
2016-11-14T04:50:43.578Z,929.5
2016-11-14T04:51:53.895Z,929.54
2016-11-14T04:53:04.216Z,929.55
2016-11-14T04:54:14.536Z,929.54
2016-11-14T04:55:39.425Z,929.5
2016-11-14T04:57:04.409Z,929.5
2016-11-14T04:58:14.743Z,929.5
2016-11-14T04:59:25.063Z,929.49
2016-11-14T05:00:35.382Z,929.45
2016-11-14T05:01:45.702Z,929.44
2016-11-14T05:02:56.019Z,929.49
2016-11-14T05:04:06.337Z,929.46
2016-11-14T05:05:31.222Z,929.46
2016-11-14T05:06:41.543Z,929.45
2016-11-14T05:07:51.897Z,929.41
2016-11-14T05:09:16.780Z,929.42
2016-11-14T05:10:27.100Z,929.42
2016-11-14T05:11:37.422Z,929.44
2016-11-14T05:12:47.742Z,929.39
2016-11-14T05:13:58.063Z,929.41
2016-11-14T05:15:08.381Z,929.42
2016-11-14T05:16:18.699Z,929.41
2016-11-14T05:17:29.020Z,929.42
2016-11-14T05:18:39.542Z,929.41
2016-11-14T05:19:50.374Z,929.42
2016-11-14T05:21:00.694Z,929.38
2016-11-14T05:22:11.011Z,929.41
2016-11-14T05:23:21.327Z,929.41
2016-11-14T05:24:31.850Z,929.42
2016-11-14T05:25:42.171Z,929.37
2016-11-14T05:26:52.490Z,929.37
2016-11-14T05:28:02.807Z,929.34
2016-11-14T05:29:13.127Z,929.37
2016-11-14T05:30:23.643Z,929.34
2016-11-14T05:31:48.529Z,929.33
2016-11-14T05:32:58.847Z,929.3
2016-11-14T05:34:09.178Z,929.34
2016-11-14T05:35:19.497Z,929.29
2016-11-14T05:36:30.026Z,929.28
2016-11-14T05:37:40.823Z,929.31
2016-11-14T05:38:51.142Z,929.26
2016-11-14T05:40:16.027Z,929.3
2016-11-14T05:41:26.350Z,929.26
2016-11-14T05:42:36.667Z,929.25
2016-11-14T05:43:46.987Z,929.2
2016-11-14T05:44:57.341Z,929.21
2016-11-14T05:46:07.697Z,929.21
2016-11-14T05:47:18.013Z,929.21
2016-11-14T05:48:28.331Z,929.2
2016-11-14T05:49:53.229Z,929.19
2016-11-14T05:51:04.020Z,929.19
2016-11-14T05:52:14.545Z,929.18
2016-11-14T05:53:24.872Z,929.14
2016-11-14T05:54:35.195Z,929.2
2016-11-14T05:55:45.550Z,929.17
2016-11-14T05:56:56.072Z,929.16
2016-11-14T05:58:06.968Z,929.19
2016-11-14T05:59:17.404Z,929.13
2016-11-14T06:00:27.837Z,929.15
2016-11-14T06:01:38.275Z,929.15
2016-11-14T06:02:48.914Z,929.15
2016-11-14T06:03:59.359Z,929.12
2016-11-14T06:06:34.779Z,929.1
2016-11-14T06:07:45.215Z,929.12
2016-11-14T06:08:55.752Z,929.11
2016-11-14T06:10:06.191Z,929.09
2016-11-14T06:11:16.658Z,929.04
2016-11-14T06:12:27.099Z,929.06
2016-11-14T06:15:02.515Z,929.03
2016-11-14T06:16:12.975Z,929.05
2016-11-14T06:17:23.410Z,929.01
2016-11-14T06:18:33.857Z,929.03
2016-11-14T06:19:44.499Z,929.01
2016-11-14T06:21:09.490Z,929.01
2016-11-14T06:22:19.931Z,929.01
2016-11-14T06:23:45.112Z,928.95
2016-11-14T06:24:55.551Z,929
2016-11-14T06:26:06.039Z,928.98
2016-11-14T06:27:31.019Z,928.99
2016-11-14T06:28:41.455Z,928.99
2016-11-14T06:29:52.098Z,928.97
2016-11-14T06:31:02.536Z,928.93
2016-11-14T06:32:12.980Z,928.96
2016-11-14T06:33:23.417Z,928.97
2016-11-14T06:34:33.953Z,928.98
2016-11-14T06:35:44.392Z,928.97
2016-11-14T06:36:54.827Z,928.97
2016-11-14T06:38:05.267Z,928.95
2016-11-14T06:39:15.725Z,928.95
2016-11-14T06:40:26.365Z,928.92
2016-11-14T06:41:36.803Z,928.93
2016-11-14T06:42:47.240Z,928.93
2016-11-14T06:43:57.677Z,928.92
2016-11-14T06:45:08.123Z,928.94
2016-11-14T06:46:18.758Z,928.93
2016-11-14T06:47:29.199Z,928.91
2016-11-14T06:48:39.634Z,928.93
2016-11-14T06:49:50.073Z,928.94
2016-11-14T06:51:00.509Z,928.94
2016-11-14T06:52:11.047Z,928.97
2016-11-14T06:53:21.481Z,928.95
2016-11-14T06:54:31.921Z,928.96
2016-11-14T06:55:42.359Z,928.96
2016-11-14T06:56:52.795Z,929
2016-11-14T06:58:03.333Z,929.05
2016-11-14T06:59:13.766Z,929.05
2016-11-14T07:00:24.200Z,929.02
2016-11-14T07:01:34.635Z,929.1
2016-11-14T07:02:45.071Z,929.1
2016-11-14T07:03:55.611Z,929.12
2016-11-14T07:05:06.048Z,929.13
2016-11-14T07:06:16.492Z,929.12
2016-11-14T07:07:26.927Z,929.14
2016-11-14T07:08:37.847Z,929.15
2016-11-14T07:09:48.385Z,929.15
2016-11-14T07:10:58.819Z,929.15
2016-11-14T07:12:09.255Z,929.18
2016-11-14T07:13:19.695Z,929.19
2016-11-14T07:14:30.133Z,929.15
2016-11-14T07:15:40.771Z,929.21
2016-11-14T07:16:51.217Z,929.15
2016-11-14T07:18:01.651Z,929.15
2016-11-14T07:19:12.120Z,929.16
2016-11-14T07:20:22.555Z,929.11
2016-11-14T07:21:33.587Z,929.19
2016-11-14T07:22:44.022Z,929.15
2016-11-14T07:23:54.466Z,929.15
2016-11-14T07:25:04.900Z,929.14
2016-11-14T07:26:15.355Z,929.12
2016-11-14T07:27:25.885Z,929.12
2016-11-14T07:28:36.469Z,929.04
2016-11-14T07:29:46.996Z,929.12
2016-11-14T07:30:57.529Z,929.09
2016-11-14T07:32:08.063Z,929.17
2016-11-14T07:33:18.793Z,929.14
2016-11-14T07:34:29.322Z,929.13
2016-11-14T07:35:39.848Z,929.13
2016-11-14T07:36:50.377Z,929.15
2016-11-14T07:38:01.391Z,929.06
2016-11-14T07:39:12.003Z,929.11
2016-11-14T07:40:22.425Z,929.07
2016-11-14T07:41:32.829Z,929.05
2016-11-14T07:42:43.235Z,929.07
2016-11-14T07:43:53.651Z,929.1
2016-11-14T07:45:04.167Z,929.08
2016-11-14T07:46:14.574Z,929.04
2016-11-14T07:47:39.543Z,929.06
2016-11-14T07:48:49.955Z,929.08
2016-11-14T07:50:00.366Z,929.17
2016-11-14T07:51:10.791Z,929.12
2016-11-14T07:52:21.194Z,929.09
2016-11-14T07:53:31.608Z,929.1
2016-11-14T07:54:42.014Z,929.1
2016-11-14T07:55:52.457Z,929.11
2016-11-14T07:57:03.204Z,929.12
2016-11-14T07:58:14.308Z,929.14
2016-11-14T07:59:39.263Z,929.17
2016-11-14T08:02:14.835Z,929.23
2016-11-14T08:03:25.237Z,929.28
2016-11-14T08:04:35.643Z,929.29
2016-11-14T08:05:46.050Z,929.31
2016-11-14T08:06:56.463Z,929.27
2016-11-14T08:08:06.876Z,929.31
2016-11-14T08:09:31.840Z,929.33
2016-11-14T08:10:42.247Z,929.32
2016-11-14T08:11:52.656Z,929.36
2016-11-14T08:13:03.263Z,929.35
2016-11-14T08:14:13.671Z,929.35
2016-11-14T08:15:24.083Z,929.33
2016-11-14T08:16:34.490Z,929.37
2016-11-14T08:17:45.101Z,929.35
2016-11-14T08:19:10.061Z,929.44
2016-11-14T08:20:20.476Z,929.43
2016-11-14T08:21:30.884Z,929.37
2016-11-14T08:22:41.289Z,929.39
2016-11-14T08:23:51.841Z,929.37
2016-11-14T08:25:02.254Z,929.35
2016-11-14T08:26:13.154Z,929.32
2016-11-14T08:27:23.560Z,929.28
2016-11-14T08:28:33.968Z,929.29
2016-11-14T08:29:58.926Z,929.24
2016-11-14T08:31:09.333Z,929.25
2016-11-14T08:32:19.741Z,929.2
2016-11-14T08:33:30.157Z,929.15
2016-11-14T08:34:40.564Z,929.15
2016-11-14T08:35:50.973Z,929.17
2016-11-14T08:37:01.867Z,929.14
2016-11-14T08:38:12.759Z,929.13
2016-11-14T08:39:23.270Z,929.1
2016-11-14T08:40:33.676Z,929.09
2016-11-14T08:41:44.085Z,929.11
2016-11-14T08:42:54.490Z,929.13
2016-11-14T08:44:04.943Z,929.09
2016-11-14T08:45:15.504Z,929.12
2016-11-14T08:46:26.036Z,929.19
2016-11-14T08:47:36.594Z,929.15
2016-11-14T08:48:47.121Z,929.11
2016-11-14T08:49:57.655Z,929.17
2016-11-14T08:51:08.184Z,929.18
2016-11-14T08:52:18.749Z,929.17
2016-11-14T08:53:29.286Z,929.15
2016-11-14T08:54:39.813Z,929.15
2016-11-14T08:55:50.318Z,929.14
2016-11-14T08:57:00.852Z,929.15
2016-11-14T08:58:11.292Z,929.14
2016-11-14T08:59:21.721Z,929.16
2016-11-14T09:00:32.157Z,929.13
2016-11-14T09:01:42.593Z,929.15
2016-11-14T09:02:53.026Z,929.17
2016-11-14T09:04:03.466Z,929.18
2016-11-14T09:05:13.904Z,929.22
2016-11-14T09:06:24.341Z,929.2
2016-11-14T09:07:34.783Z,929.2
2016-11-14T09:08:45.315Z,929.23
2016-11-14T09:09:55.751Z,929.25
2016-11-14T09:11:06.181Z,929.24
2016-11-14T09:12:16.616Z,929.27
2016-11-14T09:13:27.054Z,929.25
2016-11-14T09:14:37.586Z,929.26
2016-11-14T09:15:48.021Z,929.26
2016-11-14T09:16:58.459Z,929.26
2016-11-14T09:18:08.895Z,929.27
2016-11-14T09:19:19.363Z,929.25
2016-11-14T09:20:29.780Z,929.25
2016-11-14T09:21:40.097Z,929.29
2016-11-14T09:22:50.413Z,929.24
2016-11-14T09:24:00.736Z,929.28
2016-11-14T09:25:11.052Z,929.24
2016-11-14T09:26:21.846Z,929.24
2016-11-14T09:27:32.170Z,929.26
2016-11-14T09:28:42.485Z,929.26
2016-11-14T09:29:52.805Z,929.22
2016-11-14T09:31:03.125Z,929.26
2016-11-14T09:32:13.446Z,929.29
2016-11-14T09:33:23.767Z,929.3
2016-11-14T09:34:34.086Z,929.29
2016-11-14T09:35:44.402Z,929.29
2016-11-14T09:36:54.718Z,929.32
2016-11-14T09:38:05.240Z,929.27
2016-11-14T09:39:15.555Z,929.29
2016-11-14T09:40:26.392Z,929.29
2016-11-14T09:41:36.805Z,929.28
2016-11-14T09:42:47.219Z,929.26
2016-11-14T09:43:57.627Z,929.26
2016-11-14T09:45:08.055Z,929.3
2016-11-14T09:46:18.470Z,929.24
2016-11-14T09:47:28.883Z,929.24
2016-11-14T09:48:39.297Z,929.34
2016-11-14T09:49:49.946Z,929.32
2016-11-14T09:51:00.355Z,929.33
2016-11-14T09:52:10.770Z,929.3
2016-11-14T09:53:21.182Z,929.27
2016-11-14T09:54:31.595Z,929.3
2016-11-14T09:55:56.554Z,929.27
2016-11-14T09:57:06.965Z,929.26
2016-11-14T09:58:17.385Z,929.23
2016-11-14T09:59:27.796Z,929.24
2016-11-14T10:00:52.751Z,929.21
2016-11-14T10:02:03.168Z,929.19
2016-11-14T10:03:13.575Z,929.23
2016-11-14T10:04:23.987Z,929.22
2016-11-14T10:05:34.596Z,929.27
2016-11-14T10:06:45.007Z,929.31
2016-11-14T10:07:55.418Z,929.35
2016-11-14T10:09:06.312Z,929.42
2016-11-14T10:10:16.721Z,929.38
2016-11-14T10:11:27.129Z,929.45
2016-11-14T10:12:37.555Z,929.5
2016-11-14T10:13:48.453Z,929.54
2016-11-14T10:14:58.865Z,929.53
2016-11-14T10:16:09.283Z,929.57
2016-11-14T10:17:19.695Z,929.61
2016-11-14T10:18:30.105Z,929.64
2016-11-14T10:19:40.516Z,929.67
2016-11-14T10:20:50.930Z,929.66
2016-11-14T10:22:01.343Z,929.66
2016-11-14T10:23:11.951Z,929.68
2016-11-14T10:24:22.357Z,929.66
2016-11-14T10:25:33.246Z,929.7
2016-11-14T10:26:43.651Z,929.68
2016-11-14T10:28:08.617Z,929.65
2016-11-14T10:29:19.228Z,929.65
2016-11-14T10:30:29.706Z,929.64
2016-11-14T10:31:40.113Z,929.64
2016-11-14T10:32:50.525Z,929.58
2016-11-14T10:34:01.135Z,929.59
2016-11-14T10:35:11.547Z,929.53
2016-11-14T10:36:21.958Z,929.51
2016-11-14T10:37:32.374Z,929.55
2016-11-14T10:38:42.786Z,929.49
2016-11-14T10:39:53.195Z,929.46
2016-11-14T10:41:03.603Z,929.49
2016-11-14T10:42:14.014Z,929.51
2016-11-14T10:43:24.424Z,929.52
2016-11-14T10:44:34.836Z,929.58
2016-11-14T10:45:45.253Z,929.57
2016-11-14T10:46:55.663Z,929.55
2016-11-14T10:48:06.071Z,929.54
2016-11-14T10:49:16.509Z,929.47
2016-11-14T10:50:26.916Z,929.53
2016-11-14T10:51:37.433Z,929.45
2016-11-14T10:52:47.848Z,929.46
2016-11-14T10:53:58.261Z,929.45
2016-11-14T10:55:08.675Z,929.43
2016-11-14T10:56:19.084Z,929.46
2016-11-14T10:57:29.696Z,929.48
2016-11-14T10:58:40.106Z,929.47
2016-11-14T10:59:50.543Z,929.5
2016-11-14T11:01:00.946Z,929.48
2016-11-14T11:02:11.840Z,929.5
2016-11-14T11:05:01.750Z,929.44
2016-11-14T11:06:12.163Z,929.45
2016-11-14T11:07:22.568Z,929.44
2016-11-14T11:08:33.326Z,929.39
2016-11-14T11:09:43.726Z,929.43
2016-11-14T11:10:54.132Z,929.43
2016-11-14T11:12:04.987Z,929.42
2016-11-14T11:13:15.308Z,929.44
2016-11-14T11:14:25.739Z,929.36
2016-11-14T11:15:36.077Z,929.41
2016-11-14T11:17:00.958Z,929.37
2016-11-14T11:18:11.275Z,929.38
2016-11-14T11:19:21.594Z,929.38
2016-11-14T11:20:32.111Z,929.41
2016-11-14T11:21:42.433Z,929.41
2016-11-14T11:22:52.750Z,929.4
2016-11-14T11:24:03.068Z,929.4
2016-11-14T11:25:13.487Z,929.34
2016-11-14T11:26:23.804Z,929.36
2016-11-14T11:27:34.120Z,929.35
2016-11-14T11:28:44.441Z,929.35
2016-11-14T11:29:54.772Z,929.28
2016-11-14T11:31:05.091Z,929.24
2016-11-14T11:32:15.410Z,929.19
2016-11-14T11:33:25.739Z,929.2
2016-11-14T11:34:36.174Z,929.21
2016-11-14T11:35:46.609Z,929.17
2016-11-14T11:37:11.789Z,929.13
2016-11-14T11:38:22.221Z,929.13
2016-11-14T11:39:47.200Z,929.09
2016-11-14T11:41:12.380Z,929.08
2016-11-14T11:42:22.843Z,928.94
2016-11-14T11:43:33.274Z,928.9
2016-11-14T11:44:43.709Z,928.88
2016-11-14T11:45:54.144Z,928.87
2016-11-14T11:47:04.576Z,928.85
2016-11-14T11:48:15.012Z,928.81
2016-11-14T11:49:25.483Z,928.81
2016-11-14T11:50:35.922Z,928.78
2016-11-14T11:51:46.353Z,928.76
2016-11-14T11:52:56.790Z,928.76
2016-11-14T11:54:07.226Z,928.7
2016-11-14T11:55:17.669Z,928.61
2016-11-14T11:56:28.596Z,928.69
2016-11-14T11:57:53.572Z,928.72
2016-11-14T11:59:04.107Z,928.66
2016-11-14T12:00:14.551Z,928.66
2016-11-14T12:01:39.538Z,928.7
2016-11-14T12:02:49.989Z,928.66
2016-11-14T12:04:00.427Z,928.62
2016-11-14T12:05:10.861Z,928.62
2016-11-14T12:06:21.329Z,928.67
2016-11-14T12:07:31.688Z,928.73
2016-11-14T12:08:42.007Z,928.75
2016-11-14T12:09:52.325Z,928.68
2016-11-14T12:11:02.643Z,928.77
2016-11-14T12:12:12.956Z,928.79
2016-11-14T12:13:23.270Z,928.76
2016-11-14T12:14:33.789Z,928.71
2016-11-14T12:15:44.138Z,928.76
2016-11-14T12:16:54.455Z,928.77
2016-11-14T12:18:19.337Z,928.78
2016-11-14T12:19:29.669Z,928.75
2016-11-14T12:20:39.986Z,928.75
2016-11-14T12:21:50.302Z,928.71
2016-11-14T12:23:00.625Z,928.67
2016-11-14T12:24:10.942Z,928.69
2016-11-14T12:25:22.105Z,928.71
2016-11-14T12:26:32.427Z,928.83
2016-11-14T12:27:42.741Z,928.65
2016-11-14T12:28:53.083Z,928.76
2016-11-14T12:30:03.399Z,928.83
2016-11-14T12:31:13.725Z,928.85
2016-11-14T12:32:24.041Z,928.85
2016-11-14T12:33:34.357Z,928.91
2016-11-14T12:34:44.671Z,928.96
2016-11-14T12:35:54.992Z,929.01
2016-11-14T12:37:05.509Z,929.01
2016-11-14T12:38:30.885Z,929.08
2016-11-14T12:39:55.770Z,929.04
2016-11-14T12:41:07.044Z,929.06
2016-11-14T12:42:17.365Z,929.07
2016-11-14T12:43:42.249Z,929.08
2016-11-14T12:44:52.569Z,929.16
2016-11-14T12:46:02.888Z,929.17
2016-11-14T12:47:13.206Z,929.15
2016-11-14T12:48:23.726Z,929.18
2016-11-14T12:49:34.044Z,929.19
2016-11-14T12:50:44.359Z,929.17
2016-11-14T12:53:48.696Z,929.21
2016-11-14T12:54:59.015Z,929.22
2016-11-14T12:56:09.334Z,929.19
2016-11-14T12:57:19.650Z,929.19
2016-11-14T12:58:30.206Z,929.19
2016-11-14T12:59:40.520Z,929.18
2016-11-14T13:00:50.842Z,929.19
2016-11-14T13:02:01.159Z,929.13
2016-11-14T13:03:11.477Z,929.1
2016-11-14T13:04:21.796Z,929.12
2016-11-14T13:05:46.683Z,929.11
2016-11-14T13:06:57.009Z,929.04
2016-11-14T13:08:07.804Z,929.05
2016-11-14T13:09:18.121Z,929.04
2016-11-14T13:12:07.931Z,929.03
2016-11-14T13:13:18.354Z,928.98
2016-11-14T13:14:28.673Z,928.95
2016-11-14T13:15:38.988Z,928.92
2016-11-14T13:17:03.874Z,928.89
2016-11-14T13:18:14.192Z,928.94
2016-11-14T13:19:24.710Z,928.89
2016-11-14T13:20:35.027Z,928.92
2016-11-14T13:21:45.342Z,928.91
2016-11-14T13:22:55.667Z,928.95
2016-11-14T13:24:06.184Z,928.91
2016-11-14T13:26:41.987Z,928.88
2016-11-14T13:27:52.397Z,928.92
2016-11-14T13:29:02.801Z,928.93
2016-11-14T13:30:13.245Z,928.91
2016-11-14T13:31:23.653Z,928.89
2016-11-14T13:32:34.063Z,928.89
2016-11-14T13:33:44.470Z,928.84
2016-11-14T13:34:54.876Z,928.86
2016-11-14T13:36:05.765Z,928.83
2016-11-14T13:37:16.173Z,928.8
2016-11-14T13:38:26.579Z,928.76
2016-11-14T13:39:36.992Z,928.76
2016-11-14T13:40:47.503Z,928.74
2016-11-14T13:41:57.909Z,928.7
2016-11-14T13:43:08.315Z,928.68
2016-11-14T13:44:18.731Z,928.65
2016-11-14T13:45:29.134Z,928.69
2016-11-14T13:46:39.642Z,928.65
2016-11-14T13:47:50.051Z,928.7
2016-11-14T13:49:00.945Z,928.72
2016-11-14T13:50:11.367Z,928.7
2016-11-14T13:51:21.781Z,928.68
2016-11-14T13:52:32.873Z,928.68
2016-11-14T13:53:43.301Z,928.72
2016-11-14T13:54:54.207Z,928.62
2016-11-14T13:56:04.653Z,928.6
2016-11-14T13:57:15.068Z,928.65
2016-11-14T13:58:25.481Z,928.55
2016-11-14T13:59:35.902Z,928.51
2016-11-14T14:00:46.345Z,928.5
2016-11-14T14:01:56.750Z,928.48
2016-11-14T14:03:07.157Z,928.46
2016-11-14T14:04:32.630Z,928.43
2016-11-14T14:05:43.037Z,928.47
2016-11-14T14:06:53.490Z,928.46
2016-11-14T14:08:03.892Z,928.44
2016-11-14T14:09:14.496Z,928.47
2016-11-14T14:10:24.888Z,928.43
2016-11-14T14:11:49.781Z,928.43
2016-11-14T14:13:14.665Z,928.38
2016-11-14T14:14:24.979Z,928.38
2016-11-14T14:15:49.867Z,928.42
2016-11-14T14:17:00.184Z,928.39
2016-11-14T14:18:10.507Z,928.39
2016-11-14T14:19:20.833Z,928.4
2016-11-14T14:20:45.718Z,928.42
2016-11-14T14:21:56.043Z,928.42
2016-11-14T14:23:20.924Z,928.4
2016-11-14T14:24:31.248Z,928.38
2016-11-14T14:25:41.570Z,928.42
2016-11-14T14:27:06.457Z,928.42
2016-11-14T14:28:16.777Z,928.39
2016-11-14T14:29:27.095Z,928.42
2016-11-14T14:30:37.441Z,928.42
2016-11-14T14:31:47.759Z,928.37
2016-11-14T14:32:58.078Z,928.39
2016-11-14T14:34:22.966Z,928.35
2016-11-14T14:35:33.295Z,928.38
2016-11-14T14:36:43.616Z,928.35
2016-11-14T14:37:53.936Z,928.34
2016-11-14T14:39:18.821Z,928.31
2016-11-14T14:40:29.343Z,928.38
2016-11-14T14:41:39.663Z,928.33
2016-11-14T14:42:49.980Z,928.32
2016-11-14T14:44:14.866Z,928.31
2016-11-14T14:45:25.185Z,928.27
2016-11-14T14:46:35.709Z,928.26
2016-11-14T14:48:00.596Z,928.24
2016-11-14T14:49:10.914Z,928.25
2016-11-14T14:50:21.234Z,928.28
2016-11-14T14:51:31.756Z,928.24
2016-11-14T14:52:42.075Z,928.24
2016-11-14T14:53:52.393Z,928.27
2016-11-14T14:55:02.712Z,928.2
2016-11-14T14:56:13.029Z,928.17
2016-11-14T14:57:23.449Z,928.13
2016-11-14T14:58:33.768Z,928.08
2016-11-14T14:59:44.086Z,928.09
2016-11-14T15:00:54.404Z,928.11
2016-11-14T15:02:04.731Z,928.06
2016-11-14T15:03:15.045Z,928.12
2016-11-14T15:04:25.358Z,928.04
2016-11-14T15:05:35.695Z,928.06
2016-11-14T15:06:46.017Z,928.1
2016-11-14T15:08:10.902Z,928.01
2016-11-14T15:09:21.427Z,927.98
2016-11-14T15:10:31.744Z,928.02
2016-11-14T15:13:06.950Z,927.96